Time;durP1;ratioP1;P1;durP2;ratioP2;P2;SDS_P1;SDS_P2;PMS_P1;PMS_P2;Temp;Humidity;BMP_temperature;BMP_pressure;BME280_temperature;BME280_humidity;BME280_pressure;Samples;Min_cycle;Max_cycle;Signal;HPM_P1;HPM_P2
2022/11/16 00:01:43;;;;;;;;;;;;;;;;;;4905699;29;19934;-75
2022/11/16 00:04:30;;;;;;;;;;;;;;;;;;4906947;29;19918;-76
2022/11/16 00:07:16;;;;;;;;;;;;;;;;;;4903479;29;20339;-76
2022/11/16 00:10:03;;;;;;;;;;;;;;;;;;4913928;29;19918;-75
2022/11/16 00:12:49;;;;;;;;;;;;;;;;;;4902096;29;19924;-75
2022/11/16 00:15:36;;;;;;;;;;;;;;;;;;4908434;29;19939;-75
2022/11/16 00:18:22;;;;;;;;;;;;;;;;;;4898844;29;19915;-76
2022/11/16 00:21:08;;;;;;;;;;;;;;;;;;4902079;29;19911;-76
2022/11/16 00:23:55;;;;;;;;;;;;;;;;;;4905989;29;19946;-75
2022/11/16 00:26:41;;;;;;;;;;;;;;;;;;4905750;29;19935;-75
2022/11/16 00:29:28;;;;;;;;;;;;;;;;;;4909988;29;19918;-75
2022/11/16 00:32:15;;;;;;;;;;;;;;;;;;4907302;29;19937;-77
2022/11/16 00:35:01;;;;;;;;;;;;;;;;;;4908183;29;20299;-75
2022/11/16 00:37:48;;;;;;;;;;;;;;;;;;4902169;29;19929;-75
2022/11/16 00:40:34;;;;;;;;;;;;;;;;;;4910865;29;20375;-75
2022/11/16 00:43:20;;;;;;;;;;;;;;;;;;4910906;29;19922;-75
2022/11/16 00:46:07;;;;;;;;;;;;;;;;;;4895684;29;19938;-74
2022/11/16 00:48:53;;;;;;;;;;;;;;;;;;4908484;29;19926;-74
2022/11/16 00:51:40;;;;;;;;;;;;;;;;;;4906029;29;19923;-75
2022/11/16 00:54:26;;;;;;;;;;;;;;;;;;4899927;29;19919;-75
2022/11/16 00:57:13;;;;;;;;;;;;;;;;;;4905901;29;20466;-75
2022/11/16 00:59:59;;;;;;;;;;;;;;;;;;4907667;29;19921;-75
2022/11/16 01:02:46;;;;;;;;;;;;;;;;;;4906979;29;20315;-75
2022/11/16 01:05:32;;;;;;;;;;;;;;;;;;4894825;29;19911;-78
2022/11/16 01:08:19;;;;;;;;;;;;;;;;;;4897268;29;19916;-75
2022/11/16 01:14:10;;;;;;;;;;;;;;;;;;4906515;29;20265;-75
2022/11/16 01:16:57;;;;;;;;;;;;;;;;;;4901508;29;20372;-75
2022/11/16 01:19:43;;;;;;;;;;;;;;;;;;4911670;29;19911;-76
2022/11/16 01:22:30;;;;;;;;;;;;;;;;;;4906872;29;19919;-75
2022/11/16 01:25:16;;;;;;;;;;;;;;;;;;4894686;29;20297;-75
2022/11/16 01:28:03;;;;;;;;;;;;;;;;;;4901860;29;19915;-76
2022/11/16 01:30:49;;;;;;;;;;;;;;;;;;4907612;29;20310;-76
2022/11/16 01:33:35;;;;;;;;;;;;;;;;;;4907739;29;19927;-76
2022/11/16 01:36:22;;;;;;;;;;;;;;;;;;4897771;29;20348;-75
2022/11/16 01:39:08;;;;;;;;;;;;;;;;;;4902759;29;19911;-75
2022/11/16 01:41:55;;;;;;;;;;;;;;;;;;4905926;29;19916;-75
2022/11/16 01:44:41;;;;;;;;;;;;;;;;;;4899211;29;19916;-76
2022/11/16 01:47:28;;;;;;;;;;;;;;;;;;4905252;29;19935;-75
2022/11/16 01:50:14;;;;;;;;;;;;;;;;;;4900037;29;19915;-77
2022/11/16 01:53:01;;;;;;;;;;;;;;;;;;4908230;29;19926;-77
2022/11/16 01:55:47;;;;;;;;;;;;;;;;;;4905085;29;19926;-74
2022/11/16 01:58:34;;;;;;;;;;;;;;;;;;4901244;29;19935;-76
2022/11/16 02:01:20;;;;;;;;;;;;;;;;;;4906265;29;20389;-76
2022/11/16 02:04:07;;;;;;;;;;;;;;;;;;4906044;29;19923;-76
2022/11/16 02:06:53;;;;;;;;;;;;;;;;;;4905611;29;19922;-76
2022/11/16 02:09:57;;;;;;;;;;;;;;;;;;4901481;29;19915;-76
2022/11/16 02:12:43;;;;;;;;;;;;;;;;;;4897511;29;19923;-76
2022/11/16 02:15:30;;;;;;;;;;;;;;;;;;4908240;29;20269;-76
2022/11/16 02:18:16;;;;;;;;;;;;;;;;;;4906901;29;19926;-76
2022/11/16 02:21:02;;;;;;;;;;;;;;;;;;4907376;29;20354;-76
2022/11/16 02:23:49;;;;;;;;;;;;;;;;;;4904984;29;20408;-76
2022/11/16 02:26:35;;;;;;;;;;;;;;;;;;4907852;29;19927;-76
2022/11/16 02:29:22;;;;;;;;;;;;;;;;;;4904550;29;20403;-76
2022/11/16 02:32:08;;;;;;;;;;;;;;;;;;4909953;29;19934;-76
2022/11/16 02:34:55;;;;;;;;;;;;;;;;;;4899819;29;19915;-76
2022/11/16 02:37:41;;;;;;;;;;;;;;;;;;4906485;29;19920;-76
2022/11/16 02:40:33;;;;;;;;;;;;;;;;;;4906127;29;19915;-76
2022/11/16 02:43:20;;;;;;;;;;;;;;;;;;4903734;29;20264;-76
2022/11/16 02:46:07;;;;;;;;;;;;;;;;;;4907702;29;19919;-75
2022/11/16 02:48:53;;;;;;;;;;;;;;;;;;4907633;29;19911;-76
2022/11/16 02:51:40;;;;;;;;;;;;;;;;;;4902950;29;19926;-76
2022/11/16 02:54:26;;;;;;;;;;;;;;;;;;4908055;29;20045;-76
2022/11/16 02:57:13;;;;;;;;;;;;;;;;;;4907873;29;19972;-75
2022/11/16 02:59:59;;;;;;;;;;;;;;;;;;4906968;29;19922;-75
2022/11/16 03:02:46;;;;;;;;;;;;;;;;;;4913020;29;19931;-75
2022/11/16 03:05:32;;;;;;;;;;;;;;;;;;4911726;29;20376;-75
2022/11/16 03:08:19;;;;;;;;;;;;;;;;;;4911863;29;19915;-75
2022/11/16 03:14:10;;;;;;;;;;;;;;;;;;4905118;29;20386;-76
2022/11/16 03:16:57;;;;;;;;;;;;;;;;;;4903422;29;19938;-76
2022/11/16 03:19:43;;;;;;;;;;;;;;;;;;4903093;29;19911;-76
2022/11/16 03:22:30;;;;;;;;;;;;;;;;;;4908627;29;19919;-76
2022/11/16 03:25:16;;;;;;;;;;;;;;;;;;4910757;29;19929;-76
2022/11/16 03:28:03;;;;;;;;;;;;;;;;;;4914830;29;20307;-76
2022/11/16 03:30:49;;;;;;;;;;;;;;;;;;4909185;29;19921;-77
2022/11/16 03:33:36;;;;;;;;;;;;;;;;;;4911505;29;19915;-76
2022/11/16 03:36:22;;;;;;;;;;;;;;;;;;4906895;29;20364;-75
2022/11/16 03:39:09;;;;;;;;;;;;;;;;;;4900829;29;19912;-74
2022/11/16 03:41:55;;;;;;;;;;;;;;;;;;4905100;29;20312;-75
2022/11/16 03:44:42;;;;;;;;;;;;;;;;;;4907380;29;19915;-75
2022/11/16 03:47:28;;;;;;;;;;;;;;;;;;4906737;29;19921;-76
2022/11/16 03:50:15;;;;;;;;;;;;;;;;;;4910553;29;19911;-77
2022/11/16 03:53:01;;;;;;;;;;;;;;;;;;4910281;29;19915;-76
2022/11/16 03:55:47;;;;;;;;;;;;;;;;;;4903714;29;19911;-74
2022/11/16 03:58:34;;;;;;;;;;;;;;;;;;4902840;29;19915;-76
2022/11/16 04:01:20;;;;;;;;;;;;;;;;;;4906429;29;19938;-76
2022/11/16 04:24:10;;;;;;;;;;;;;;;;;;4906647;29;19926;-75
2022/11/16 04:25:45;;;;;;;;;;;;;;;;;;4904223;29;20294;-75
2022/11/16 04:28:32;;;;;;;;;;;;;;;;;;4907514;29;19922;-74
2022/11/16 04:37:47;;;;;;;;;;;;;;;;;;4904871;29;19946;-75
2022/11/16 04:40:33;;;;;;;;;;;;;;;;;;4900617;29;19923;-75
2022/11/16 04:43:20;;;;;;;;;;;;;;;;;;4903289;29;20363;-75
2022/11/16 04:49:11;;;;;;;;;;;;;;;;;;4908119;29;19912;-75
2022/11/16 04:51:58;;;;;;;;;;;;;;;;;;4909750;29;20276;-75
2022/11/16 04:54:47;;;;;;;;;;;;;;;;;;4900862;29;19915;-76
2022/11/16 04:57:33;;;;;;;;;;;;;;;;;;4905825;29;20294;-75
2022/11/16 05:00:20;;;;;;;;;;;;;;;;;;4901042;29;19915;-76
2022/11/16 05:03:06;;;;;;;;;;;;;;;;;;4903834;29;19930;-75
2022/11/16 05:05:52;;;;;;;;;;;;;;;;;;4910185;29;19918;-75
2022/11/16 05:08:39;;;;;;;;;;;;;;;;;;4902460;29;19915;-75
2022/11/16 05:11:25;;;;;;;;;;;;;;;;;;4911475;29;19919;-75
2022/11/16 05:14:12;;;;;;;;;;;;;;;;;;4906088;29;19957;-76
2022/11/16 05:16:58;;;;;;;;;;;;;;;;;;4903304;29;19924;-75
2022/11/16 05:22:50;;;;;;;;;;;;;;;;;;4903736;29;19915;-75
2022/11/16 05:25:37;;;;;;;;;;;;;;;;;;4894095;29;19922;-76
2022/11/16 05:28:23;;;;;;;;;;;;;;;;;;4910979;29;19929;-75
2022/11/16 05:31:10;;;;;;;;;;;;;;;;;;4904590;29;19922;-75
2022/11/16 05:33:56;;;;;;;;;;;;;;;;;;4902299;29;19921;-76
2022/11/16 05:36:43;;;;;;;;;;;;;;;;;;4900952;29;19926;-76
2022/11/16 05:39:29;;;;;;;;;;;;;;;;;;4906177;29;19916;-75
2022/11/16 05:42:15;;;;;;;;;;;;;;;;;;4903823;29;19923;-76
2022/11/16 05:45:02;;;;;;;;;;;;;;;;;;4905052;29;19920;-76
2022/11/16 05:47:48;;;;;;;;;;;;;;;;;;4904062;29;19922;-75
2022/11/16 05:50:35;;;;;;;;;;;;;;;;;;4905495;29;19923;-76
2022/11/16 05:53:21;;;;;;;;;;;;;;;;;;4899666;29;19915;-75
2022/11/16 05:56:08;;;;;;;;;;;;;;;;;;4905874;29;19918;-75
2022/11/16 05:58:54;;;;;;;;;;;;;;;;;;4905223;29;19920;-75
2022/11/16 06:01:41;;;;;;;;;;;;;;;;;;4902380;29;19935;-76
2022/11/16 06:04:27;;;;;;;;;;;;;;;;;;4909365;29;19934;-76
2022/11/16 06:07:14;;;;;;;;;;;;;;;;;;4908852;29;19911;-76
2022/11/16 06:10:00;;;;;;;;;;;;;;;;;;4901142;29;19915;-75
2022/11/16 06:12:47;;;;;;;;;;;;;;;;;;4904023;29;19930;-75
2022/11/16 06:15:33;;;;;;;;;;;;;;;;;;4899153;29;19915;-76
2022/11/16 06:18:20;;;;;;;;;;;;;;;;;;4902753;29;19924;-77
2022/11/16 06:21:06;;;;;;;;;;;;;;;;;;4900683;29;19923;-77
2022/11/16 06:23:53;;;;;;;;;;;;;;;;;;4907980;29;20594;-76
2022/11/16 06:26:39;;;;;;;;;;;;;;;;;;4910686;29;19911;-76
2022/11/16 06:29:26;;;;;;;;;;;;;;;;;;4906440;29;19922;-76
2022/11/16 06:32:13;;;;;;;;;;;;;;;;;;4904052;29;19915;-76
2022/11/16 06:34:59;;;;;;;;;;;;;;;;;;4913160;29;19922;-76
2022/11/16 06:37:46;;;;;;;;;;;;;;;;;;4913912;29;20320;-77
2022/11/16 06:40:32;;;;;;;;;;;;;;;;;;4909114;29;19911;-76
2022/11/16 06:43:19;;;;;;;;;;;;;;;;;;4908409;29;19926;-76
2022/11/16 06:46:05;;;;;;;;;;;;;;;;;;4908823;29;19922;-77
2022/11/16 06:48:52;;;;;;;;;;;;;;;;;;4911882;29;19926;-77
2022/11/16 06:51:38;;;;;;;;;;;;;;;;;;4912893;29;19911;-76
2022/11/16 06:54:25;;;;;;;;;;;;;;;;;;4906178;29;19915;-76
2022/11/16 06:57:11;;;;;;;;;;;;;;;;;;4896513;29;19919;-77
2022/11/16 06:59:58;;;;;;;;;;;;;;;;;;4902230;29;19919;-77
2022/11/16 07:02:44;;;;;;;;;;;;;;;;;;4913582;29;19937;-77
2022/11/16 07:05:31;;;;;;;;;;;;;;;;;;4896233;29;19937;-76
2022/11/16 07:08:17;;;;;;;;;;;;;;;;;;4904543;29;20080;-77
2022/11/16 07:11:04;;;;;;;;;;;;;;;;;;4913967;29;20437;-77
2022/11/16 07:13:50;;;;;;;;;;;;;;;;;;4909117;29;19926;-77
2022/11/16 07:16:36;;;;;;;;;;;;;;;;;;4909320;29;19926;-77
2022/11/16 07:19:23;;;;;;;;;;;;;;;;;;4900805;29;19911;-77
2022/11/16 07:22:09;;;;;;;;;;;;;;;;;;4913203;29;19919;-77
2022/11/16 07:24:56;;;;;;;;;;;;;;;;;;4912206;29;20317;-77
2022/11/16 07:27:42;;;;;;;;;;;;;;;;;;4912283;29;19918;-77
2022/11/16 07:30:29;;;;;;;;;;;;;;;;;;4909639;29;19912;-77
2022/11/16 07:33:16;;;;;;;;;;;;;;;;;;4908163;29;19923;-77
2022/11/16 07:36:02;;;;;;;;;;;;;;;;;;4907138;29;20583;-76
2022/11/16 07:38:48;;;;;;;;;;;;;;;;;;4912771;29;19919;-76
2022/11/16 07:41:35;;;;;;;;;;;;;;;;;;4908909;29;19923;-77
2022/11/16 07:44:21;;;;;;;;;;;;;;;;;;4901091;29;19915;-77
2022/11/16 07:47:08;;;;;;;;;;;;;;;;;;4901364;29;19921;-77
2022/11/16 07:49:54;;;;;;;;;;;;;;;;;;4905209;29;20343;-76
2022/11/16 07:52:45;;;;;;;;;;;;;;;;;;4904387;29;19915;-77
2022/11/16 07:55:32;;;;;;;;;;;;;;;;;;4903457;29;20382;-76
2022/11/16 07:58:18;;;;;;;;;;;;;;;;;;4902651;29;19923;-77
2022/11/16 08:01:05;;;;;;;;;;;;;;;;;;4907045;29;19919;-77
2022/11/16 08:03:51;;;;;;;;;;;;;;;;;;4903506;29;19934;-78
2022/11/16 08:06:38;;;;;;;;;;;;;;;;;;4902850;29;19919;-77
2022/11/16 08:09:24;;;;;;;;;;;;;;;;;;4897685;29;19916;-77
2022/11/16 08:12:11;;;;;;;;;;;;;;;;;;4906282;29;19923;-77
2022/11/16 08:14:58;;;;;;;;;;;;;;;;;;4905954;29;19946;-77
2022/11/16 08:17:44;;;;;;;;;;;;;;;;;;4905985;29;19930;-77
2022/11/16 08:20:31;;;;;;;;;;;;;;;;;;4905337;29;19915;-77
2022/11/16 08:23:18;;;;;;;;;;;;;;;;;;4900440;29;19919;-77
2022/11/16 08:26:04;;;;;;;;;;;;;;;;;;4906302;29;19911;-77
2022/11/16 08:28:52;;;;;;;;;;;;;;;;;;4906601;29;19915;-77
2022/11/16 08:31:39;;;;;;;;;;;;;;;;;;4899479;29;20367;-77
2022/11/16 08:34:25;;;;;;;;;;;;;;;;;;4912713;29;20621;-77
2022/11/16 08:37:12;;;;;;;;;;;;;;;;;;4896274;29;19930;-77
2022/11/16 08:39:58;;;;;;;;;;;;;;;;;;4909673;29;19929;-78
2022/11/16 08:42:45;;;;;;;;;;;;;;;;;;4902478;29;19927;-77
2022/11/16 08:45:32;;;;;;;;;;;;;;;;;;4905197;29;20442;-77
2022/11/16 08:48:19;;;;;;;;;;;;;;;;;;4902018;29;19916;-77
2022/11/16 08:51:05;;;;;;;;;;;;;;;;;;4897767;29;19916;-77
2022/11/16 08:53:52;;;;;;;;;;;;;;;;;;4903405;29;19918;-78
2022/11/16 08:56:38;;;;;;;;;;;;;;;;;;4907444;29;19935;-78
2022/11/16 08:59:25;;;;;;;;;;;;;;;;;;4896057;29;19920;-78
2022/11/16 09:02:11;;;;;;;;;;;;;;;;;;4898043;29;20451;-77
2022/11/16 09:04:58;;;;;;;;;;;;;;;;;;4907900;29;19925;-78
2022/11/16 09:07:44;;;;;;;;;;;;;;;;;;4909589;29;20656;-77
2022/11/16 09:10:31;;;;;;;;;;;;;;;;;;4895377;29;19923;-78
2022/11/16 09:13:17;;;;;;;;;;;;;;;;;;4908618;29;20296;-78
2022/11/16 09:16:04;;;;;;;;;;;;;;;;;;4903139;29;19917;-78
2022/11/16 09:18:50;;;;;;;;;;;;;;;;;;4908824;29;20028;-78
2022/11/16 09:21:37;;;;;;;;;;;;;;;;;;4909771;29;19930;-77
2022/11/16 09:24:23;;;;;;;;;;;;;;;;;;4902208;29;19923;-77
2022/11/16 09:27:10;;;;;;;;;;;;;;;;;;4905120;29;19926;-77
2022/11/16 09:29:56;;;;;;;;;;;;;;;;;;4901306;29;19919;-77
2022/11/16 09:32:43;;;;;;;;;;;;;;;;;;4908748;29;20421;-77
2022/11/16 09:35:29;;;;;;;;;;;;;;;;;;4900331;29;19937;-77
2022/11/16 09:38:16;;;;;;;;;;;;;;;;;;4901781;29;19927;-77
2022/11/16 09:41:02;;;;;;;;;;;;;;;;;;4898507;29;19915;-77
2022/11/16 09:43:49;;;;;;;;;;;;;;;;;;4902112;29;19922;-78
2022/11/16 09:46:36;;;;;;;;;;;;;;;;;;4905229;29;19915;-76
2022/11/16 09:49:22;;;;;;;;;;;;;;;;;;4906723;29;19938;-76
2022/11/16 09:52:09;;;;;;;;;;;;;;;;;;4899951;29;20317;-77
2022/11/16 09:54:55;;;;;;;;;;;;;;;;;;4909364;29;19922;-76
2022/11/16 09:57:42;;;;;;;;;;;;;;;;;;4910193;29;19934;-77
2022/11/16 10:00:28;;;;;;;;;;;;;;;;;;4903581;29;19926;-77
2022/11/16 10:03:15;;;;;;;;;;;;;;;;;;4905954;29;20323;-78
2022/11/16 10:06:02;;;;;;;;;;;;;;;;;;4897375;29;20288;-77
2022/11/16 10:08:48;;;;;;;;;;;;;;;;;;4913451;29;19923;-77
2022/11/16 10:11:35;;;;;;;;;;;;;;;;;;4906006;29;19920;-77
2022/11/16 10:14:21;;;;;;;;;;;;;;;;;;4902041;29;19919;-77
2022/11/16 10:17:08;;;;;;;;;;;;;;;;;;4898581;29;19927;-77
2022/11/16 10:19:54;;;;;;;;;;;;;;;;;;4899458;29;20717;-77
2022/11/16 10:22:41;;;;;;;;;;;;;;;;;;4904448;29;19923;-78
2022/11/16 10:25:27;;;;;;;;;;;;;;;;;;4905336;29;19918;-77
2022/11/16 10:28:14;;;;;;;;;;;;;;;;;;4901266;29;19915;-77
2022/11/16 10:31:00;;;;;;;;;;;;;;;;;;4907550;29;19915;-77
2022/11/16 10:33:47;;;;;;;;;;;;;;;;;;4900837;29;19923;-77
2022/11/16 10:36:33;;;;;;;;;;;;;;;;;;4907371;29;19922;-77
2022/11/16 10:39:20;;;;;;;;;;;;;;;;;;4899672;29;19927;-76
2022/11/16 10:42:06;;;;;;;;;;;;;;;;;;4902148;29;19922;-77
2022/11/16 10:44:53;;;;;;;;;;;;;;;;;;4895137;29;19911;-76
2022/11/16 10:47:41;;;;;;;;;;;;;;;;;;4897787;29;19915;-77
2022/11/16 10:50:30;;;;;;;;;;;;;;;;;;4908776;29;19933;-76
2022/11/16 10:53:17;;;;;;;;;;;;;;;;;;4896316;29;20698;-76
2022/11/16 10:56:03;;;;;;;;;;;;;;;;;;4908087;29;19919;-76
2022/11/16 10:58:51;;;;;;;;;;;;;;;;;;4909731;29;19927;-76
2022/11/16 11:01:37;;;;;;;;;;;;;;;;;;4898224;29;19946;-76
2022/11/16 11:04:24;;;;;;;;;;;;;;;;;;4906443;29;20287;-76
2022/11/16 11:07:12;;;;;;;;;;;;;;;;;;4900143;29;20227;-83
2022/11/16 11:09:59;;;;;;;;;;;;;;;;;;4897736;29;19923;-77
2022/11/16 11:12:45;;;;;;;;;;;;;;;;;;4896445;29;20387;-77
2022/11/16 11:15:32;;;;;;;;;;;;;;;;;;4895951;29;19916;-77
2022/11/16 11:18:18;;;;;;;;;;;;;;;;;;4898579;29;19930;-77
2022/11/16 11:21:05;;;;;;;;;;;;;;;;;;4909614;29;19915;-77
2022/11/16 11:23:51;;;;;;;;;;;;;;;;;;4912813;29;19915;-77
2022/11/16 11:26:38;;;;;;;;;;;;;;;;;;4913596;29;19941;-76
2022/11/16 11:29:25;;;;;;;;;;;;;;;;;;4908184;29;19916;-77
2022/11/16 11:32:11;;;;;;;;;;;;;;;;;;4900050;29;20675;-77
2022/11/16 11:34:59;;;;;;;;;;;;;;;;;;4908065;29;19922;-77
2022/11/16 11:37:46;;;;;;;;;;;;;;;;;;4896171;29;20022;-77
2022/11/16 11:40:32;;;;;;;;;;;;;;;;;;4905907;29;19911;-77
2022/11/16 11:43:19;;;;;;;;;;;;;;;;;;4908998;29;19926;-76
2022/11/16 11:46:05;;;;;;;;;;;;;;;;;;4902668;29;19922;-77
2022/11/16 11:48:52;;;;;;;;;;;;;;;;;;4907860;29;19919;-77
2022/11/16 11:51:39;;;;;;;;;;;;;;;;;;4910208;29;21185;-77
2022/11/16 11:54:25;;;;;;;;;;;;;;;;;;4914500;29;19915;-76
2022/11/16 11:57:14;;;;;;;;;;;;;;;;;;4909574;29;20377;-77
2022/11/16 12:00:00;;;;;;;;;;;;;;;;;;4903696;29;19916;-77
2022/11/16 12:02:47;;;;;;;;;;;;;;;;;;4907446;29;19942;-77
2022/11/16 12:05:34;;;;;;;;;;;;;;;;;;4918604;29;19911;-76
2022/11/16 12:08:20;;;;;;;;;;;;;;;;;;4913529;29;20631;-77
2022/11/16 12:11:07;;;;;;;;;;;;;;;;;;4913370;29;20030;-77
2022/11/16 12:13:53;;;;;;;;;;;;;;;;;;4905435;29;19911;-77
2022/11/16 12:16:40;;;;;;;;;;;;;;;;;;4904619;29;19915;-77
2022/11/16 12:19:26;;;;;;;;;;;;;;;;;;4908236;29;19927;-76
2022/11/16 12:22:13;;;;;;;;;;;;;;;;;;4903229;29;19915;-77
2022/11/16 12:24:59;;;;;;;;;;;;;;;;;;4904586;29;20063;-76
2022/11/16 12:27:45;;;;;;;;;;;;;;;;;;4899711;29;19920;-76
2022/11/16 12:30:32;;;;;;;;;;;;;;;;;;4905826;29;19915;-77
2022/11/16 12:33:20;;;;;;;;;;;;;;;;;;4904745;29;19921;-77
2022/11/16 12:36:07;;;;;;;;;;;;;;;;;;4903873;29;19916;-77
2022/11/16 12:38:53;;;;;;;;;;;;;;;;;;4905419;29;19931;-77
2022/11/16 12:41:40;;;;;;;;;;;;;;;;;;4909752;29;19927;-77
2022/11/16 12:44:26;;;;;;;;;;;;;;;;;;4898790;29;19922;-77
2022/11/16 12:47:13;;;;;;;;;;;;;;;;;;4897487;29;19934;-77
2022/11/16 12:49:59;;;;;;;;;;;;;;;;;;4905530;29;20387;-77
2022/11/16 12:52:46;;;;;;;;;;;;;;;;;;4894185;29;19915;-77
2022/11/16 12:55:32;;;;;;;;;;;;;;;;;;4906556;29;20375;-76
2022/11/16 12:58:19;;;;;;;;;;;;;;;;;;4907788;29;19919;-77
2022/11/16 13:01:05;;;;;;;;;;;;;;;;;;4913250;29;19911;-76
2022/11/16 13:03:52;;;;;;;;;;;;;;;;;;4907404;29;19924;-76
2022/11/16 13:06:38;;;;;;;;;;;;;;;;;;4898117;29;19937;-76
2022/11/16 13:09:25;;;;;;;;;;;;;;;;;;4902137;29;20383;-76
2022/11/16 13:12:13;;;;;;;;;;;;;;;;;;4897296;29;19922;-76
2022/11/16 13:14:59;;;;;;;;;;;;;;;;;;4899140;29;20586;-76
2022/11/16 13:17:46;;;;;;;;;;;;;;;;;;4910888;29;19926;-76
2022/11/16 13:20:32;;;;;;;;;;;;;;;;;;4895960;29;19918;-76
2022/11/16 13:23:18;;;;;;;;;;;;;;;;;;4909723;29;19918;-76
2022/11/16 13:26:09;;;;;;;;;;;;;;;;;;4903737;29;19915;-76
2022/11/16 13:28:55;;;;;;;;;;;;;;;;;;4899199;29;19917;-76
2022/11/16 13:31:42;;;;;;;;;;;;;;;;;;4909540;29;20390;-76
2022/11/16 13:34:29;;;;;;;;;;;;;;;;;;4909662;29;19923;-77
2022/11/16 13:37:15;;;;;;;;;;;;;;;;;;4902044;29;19919;-77
2022/11/16 13:40:05;;;;;;;;;;;;;;;;;;4910098;29;19915;-76
2022/11/16 13:42:51;;;;;;;;;;;;;;;;;;4909601;29;19915;-76
2022/11/16 13:45:38;;;;;;;;;;;;;;;;;;4911084;29;19911;-76
2022/11/16 13:48:24;;;;;;;;;;;;;;;;;;4906094;29;20397;-77
2022/11/16 13:51:11;;;;;;;;;;;;;;;;;;4897279;29;19922;-76
2022/11/16 13:53:57;;;;;;;;;;;;;;;;;;4914332;29;19912;-76
2022/11/16 13:56:43;;;;;;;;;;;;;;;;;;4904929;29;19921;-76
2022/11/16 13:59:30;;;;;;;;;;;;;;;;;;4898335;29;19961;-76
2022/11/16 14:02:16;;;;;;;;;;;;;;;;;;4897931;29;19923;-78
2022/11/16 14:05:03;;;;;;;;;;;;;;;;;;4908782;29;19919;-77
2022/11/16 14:07:51;;;;;;;;;;;;;;;;;;4897727;29;19926;-77
2022/11/16 14:10:37;;;;;;;;;;;;;;;;;;4902596;29;19915;-76
2022/11/16 14:13:23;;;;;;;;;;;;;;;;;;4909180;29;19911;-76
2022/11/16 14:16:10;;;;;;;;;;;;;;;;;;4899164;29;19912;-76
2022/11/16 14:18:56;;;;;;;;;;;;;;;;;;4903149;29;19920;-76
2022/11/16 14:21:43;;;;;;;;;;;;;;;;;;4897502;29;19911;-77
2022/11/16 14:24:29;;;;;;;;;;;;;;;;;;4901966;29;19922;-77
2022/11/16 14:27:16;;;;;;;;;;;;;;;;;;4912374;29;20525;-78
2022/11/16 14:30:02;;;;;;;;;;;;;;;;;;4898850;29;19921;-77
2022/11/16 14:32:49;;;;;;;;;;;;;;;;;;4909469;29;20287;-75
2022/11/16 14:35:36;;;;;;;;;;;;;;;;;;4901972;29;19918;-77
2022/11/16 14:38:22;;;;;;;;;;;;;;;;;;4899617;29;19924;-78
2022/11/16 14:41:09;;;;;;;;;;;;;;;;;;4898122;29;20265;-77
2022/11/16 14:43:55;;;;;;;;;;;;;;;;;;4907924;29;19921;-77
2022/11/16 14:46:42;;;;;;;;;;;;;;;;;;4900385;29;19919;-78
2022/11/16 14:49:28;;;;;;;;;;;;;;;;;;4911191;29;19915;-78
2022/11/16 14:52:15;;;;;;;;;;;;;;;;;;4899128;29;19918;-78
2022/11/16 14:55:01;;;;;;;;;;;;;;;;;;4912101;29;20332;-78
2022/11/16 14:57:48;;;;;;;;;;;;;;;;;;4904028;29;19926;-78
2022/11/16 15:00:34;;;;;;;;;;;;;;;;;;4911496;29;19915;-77
2022/11/16 15:03:21;;;;;;;;;;;;;;;;;;4910226;29;19927;-77
2022/11/16 15:06:07;;;;;;;;;;;;;;;;;;4906518;29;19918;-77
2022/11/16 15:08:54;;;;;;;;;;;;;;;;;;4900050;29;19918;-78
2022/11/16 15:14:46;;;;;;;;;;;;;;;;;;4909294;29;20703;-77
2022/11/16 15:17:32;;;;;;;;;;;;;;;;;;4906309;29;19921;-77
2022/11/16 15:20:19;;;;;;;;;;;;;;;;;;4897757;29;19938;-77
2022/11/16 15:23:05;;;;;;;;;;;;;;;;;;4910836;29;19911;-77
2022/11/16 15:25:52;;;;;;;;;;;;;;;;;;4905286;29;19923;-78
2022/11/16 15:28:38;;;;;;;;;;;;;;;;;;4900032;29;19912;-77
2022/11/16 15:31:25;;;;;;;;;;;;;;;;;;4902571;29;19920;-77
2022/11/16 15:34:11;;;;;;;;;;;;;;;;;;4914291;29;19915;-77
2022/11/16 15:40:05;;;;;;;;;;;;;;;;;;4890245;29;19920;-77
2022/11/16 15:42:57;;;;;;;;;;;;;;;;;;4900241;29;19926;-77
2022/11/16 15:45:43;;;;;;;;;;;;;;;;;;4919858;29;20012;-77
2022/11/16 15:48:30;;;;;;;;;;;;;;;;;;4901570;29;19920;-78
2022/11/16 15:51:16;;;;;;;;;;;;;;;;;;4899718;29;19919;-77
2022/11/16 15:54:02;;;;;;;;;;;;;;;;;;4896479;29;19920;-78
2022/11/16 15:56:49;;;;;;;;;;;;;;;;;;4910971;29;19922;-76
2022/11/16 15:59:35;;;;;;;;;;;;;;;;;;4907369;29;19919;-75
2022/11/16 16:02:22;;;;;;;;;;;;;;;;;;4897590;29;20455;-78
2022/11/16 16:05:08;;;;;;;;;;;;;;;;;;4897597;29;19918;-78
2022/11/16 16:07:58;;;;;;;;;;;;;;;;;;4909100;29;19923;-78
2022/11/16 16:10:44;;;;;;;;;;;;;;;;;;4903434;29;19934;-78
2022/11/16 16:13:31;;;;;;;;;;;;;;;;;;4903578;29;19915;-78
2022/11/16 16:16:17;;;;;;;;;;;;;;;;;;4910092;29;20299;-77
2022/11/16 16:19:04;;;;;;;;;;;;;;;;;;4906272;29;19924;-77
2022/11/16 16:21:50;;;;;;;;;;;;;;;;;;4895524;29;19915;-78
2022/11/16 16:24:37;;;;;;;;;;;;;;;;;;4906736;29;19933;-77
2022/11/16 16:27:24;;;;;;;;;;;;;;;;;;4901421;29;19919;-78
2022/11/16 16:30:10;;;;;;;;;;;;;;;;;;4897615;29;19931;-78
2022/11/16 16:32:57;;;;;;;;;;;;;;;;;;4917066;29;20387;-78
2022/11/16 16:35:44;;;;;;;;;;;;;;;;;;4902131;29;19939;-78
2022/11/16 16:38:30;;;;;;;;;;;;;;;;;;4900730;29;19932;-78
2022/11/16 16:41:17;;;;;;;;;;;;;;;;;;4900079;29;19911;-78
2022/11/16 16:44:03;;;;;;;;;;;;;;;;;;4898380;29;19915;-77
2022/11/16 16:46:50;;;;;;;;;;;;;;;;;;4905829;29;19926;-78
2022/11/16 16:49:36;;;;;;;;;;;;;;;;;;4903936;29;19922;-77
2022/11/16 16:52:23;;;;;;;;;;;;;;;;;;4904342;29;19923;-78
2022/11/16 16:55:09;;;;;;;;;;;;;;;;;;4898247;29;19911;-77
2022/11/16 16:57:58;;;;;;;;;;;;;;;;;;4910787;29;19935;-77
2022/11/16 17:00:44;;;;;;;;;;;;;;;;;;4908115;29;19923;-77
2022/11/16 17:03:31;;;;;;;;;;;;;;;;;;4911464;29;20592;-77
2022/11/16 17:06:17;;;;;;;;;;;;;;;;;;4902210;29;19918;-77
2022/11/16 17:09:04;;;;;;;;;;;;;;;;;;4909961;29;19924;-77
2022/11/16 17:11:50;;;;;;;;;;;;;;;;;;4908914;29;20445;-76
2022/11/16 17:14:37;;;;;;;;;;;;;;;;;;4901079;29;19919;-75
2022/11/16 17:17:23;;;;;;;;;;;;;;;;;;4899256;29;19911;-75
2022/11/16 17:20:10;;;;;;;;;;;;;;;;;;4898598;29;19934;-76
2022/11/16 17:22:56;;;;;;;;;;;;;;;;;;4899078;29;20378;-76
2022/11/16 17:25:43;;;;;;;;;;;;;;;;;;4899723;29;19942;-75
2022/11/16 17:28:29;;;;;;;;;;;;;;;;;;4899593;29;19922;-77
2022/11/16 17:31:16;;;;;;;;;;;;;;;;;;4903949;29;19922;-77
2022/11/16 17:34:03;;;;;;;;;;;;;;;;;;4900864;29;20013;-77
2022/11/16 17:36:49;;;;;;;;;;;;;;;;;;4903384;29;19925;-78
2022/11/16 17:39:36;;;;;;;;;;;;;;;;;;4901947;29;20048;-76
2022/11/16 17:42:22;;;;;;;;;;;;;;;;;;4900932;29;19915;-74
2022/11/16 17:45:09;;;;;;;;;;;;;;;;;;4903007;29;20398;-73
2022/11/16 17:47:55;;;;;;;;;;;;;;;;;;4905637;29;19915;-74
2022/11/16 17:50:41;;;;;;;;;;;;;;;;;;4907438;29;20315;-74
2022/11/16 17:53:28;;;;;;;;;;;;;;;;;;4905210;29;19922;-74
2022/11/16 17:56:14;;;;;;;;;;;;;;;;;;4897120;29;19918;-75
2022/11/16 17:59:01;;;;;;;;;;;;;;;;;;4897612;29;20391;-75
2022/11/16 18:01:48;;;;;;;;;;;;;;;;;;4908959;29;20379;-74
2022/11/16 18:04:34;;;;;;;;;;;;;;;;;;4899347;29;20280;-74
2022/11/16 18:07:21;;;;;;;;;;;;;;;;;;4900928;29;19915;-75
2022/11/16 18:10:08;;;;;;;;;;;;;;;;;;4904110;29;19911;-74
2022/11/16 18:12:55;;;;;;;;;;;;;;;;;;4907194;29;20358;-74
2022/11/16 18:15:41;;;;;;;;;;;;;;;;;;4906278;29;19919;-74
2022/11/16 18:18:28;;;;;;;;;;;;;;;;;;4899212;29;19923;-74
2022/11/16 18:21:14;;;;;;;;;;;;;;;;;;4907965;29;20387;-74
2022/11/16 18:24:01;;;;;;;;;;;;;;;;;;4904008;29;19923;-74
2022/11/16 18:26:48;;;;;;;;;;;;;;;;;;4909614;29;20234;-74
2022/11/16 18:29:35;;;;;;;;;;;;;;;;;;4908078;29;19926;-81
2022/11/16 18:32:22;;;;;;;;;;;;;;;;;;4910113;29;20121;-74
2022/11/16 18:35:08;;;;;;;;;;;;;;;;;;4901327;29;19922;-73
2022/11/16 18:37:55;;;;;;;;;;;;;;;;;;4902760;29;19923;-74
2022/11/16 18:40:41;;;;;;;;;;;;;;;;;;4903297;29;19919;-73
2022/11/16 18:43:28;;;;;;;;;;;;;;;;;;4898483;29;19941;-74
2022/11/16 18:46:14;;;;;;;;;;;;;;;;;;4907161;29;19926;-73
2022/11/16 18:49:01;;;;;;;;;;;;;;;;;;4904968;29;19930;-73
2022/11/16 18:51:47;;;;;;;;;;;;;;;;;;4903692;29;20288;-73
2022/11/16 18:54:34;;;;;;;;;;;;;;;;;;4906947;29;19912;-73
2022/11/16 18:57:20;;;;;;;;;;;;;;;;;;4901906;29;19949;-73
2022/11/16 19:00:08;;;;;;;;;;;;;;;;;;4906357;29;19931;-74
2022/11/16 19:02:54;;;;;;;;;;;;;;;;;;4902017;29;19924;-74
2022/11/16 19:05:41;;;;;;;;;;;;;;;;;;4900112;29;19924;-74
2022/11/16 19:08:27;;;;;;;;;;;;;;;;;;4900877;29;19923;-74
2022/11/16 19:11:14;;;;;;;;;;;;;;;;;;4902082;29;19937;-74
2022/11/16 19:14:03;;;;;;;;;;;;;;;;;;4904652;29;19922;-74
2022/11/16 19:16:49;;;;;;;;;;;;;;;;;;4908304;29;19918;-73
2022/11/16 19:19:36;;;;;;;;;;;;;;;;;;4906414;29;19923;-73
2022/11/16 19:22:22;;;;;;;;;;;;;;;;;;4903292;29;19915;-73
2022/11/16 19:25:09;;;;;;;;;;;;;;;;;;4905216;29;20268;-73
2022/11/16 19:27:55;;;;;;;;;;;;;;;;;;4898494;29;19915;-76
2022/11/16 19:30:42;;;;;;;;;;;;;;;;;;4900006;29;19935;-74
2022/11/16 19:33:28;;;;;;;;;;;;;;;;;;4911632;29;19951;-75
2022/11/16 19:36:15;;;;;;;;;;;;;;;;;;4914227;29;19911;-75
2022/11/16 19:39:01;;;;;;;;;;;;;;;;;;4901755;29;19931;-75
2022/11/16 19:41:48;;;;;;;;;;;;;;;;;;4899524;29;19919;-76